createdAt,value
2018-04-16T00:00:05.333Z,1.609344
2018-04-16T00:00:17.593Z,1.609344
2018-04-16T00:00:29.900Z,3.218688
2018-04-16T00:00:42.084Z,3.218688
2018-04-16T00:00:54.305Z,3.218688
2018-04-16T00:01:06.486Z,3.218688
2018-04-16T00:01:18.671Z,3.218688
2018-04-16T00:01:30.862Z,3.218688
2018-04-16T00:01:43.042Z,4.828032
2018-04-16T00:01:55.213Z,4.828032
2018-04-16T00:02:07.409Z,6.437376
2018-04-16T00:02:19.590Z,6.437376
2018-04-16T00:02:31.744Z,8.04672
2018-04-16T00:02:43.939Z,9.656064
2018-04-16T00:02:56.121Z,9.656064
2018-04-16T00:03:08.313Z,6.437376
2018-04-16T00:03:20.472Z,6.437376
2018-04-16T00:03:32.684Z,6.437376
2018-04-16T00:03:44.860Z,6.437376
2018-04-16T00:03:57.027Z,6.437376
2018-04-16T00:04:09.206Z,8.04672
2018-04-16T00:04:21.388Z,9.656064
2018-04-16T00:04:33.663Z,9.656064
2018-04-16T00:04:45.836Z,9.656064
2018-04-16T00:04:58.008Z,9.656064
2018-04-16T00:05:10.186Z,6.437376
2018-04-16T00:05:22.337Z,6.437376
2018-04-16T00:05:34.573Z,9.656064
2018-04-16T00:05:46.747Z,9.656064
2018-04-16T00:05:59.230Z,9.656064
2018-04-16T00:06:11.405Z,3.218688
2018-04-16T00:06:23.637Z,6.437376
2018-04-16T00:06:35.817Z,6.437376
2018-04-16T00:06:47.966Z,6.437376
2018-04-16T00:07:00.145Z,9.656064
2018-04-16T00:07:12.305Z,9.656064
2018-04-16T00:07:24.488Z,9.656064
2018-04-16T00:07:36.641Z,11.265408
2018-04-16T00:07:48.792Z,11.265408
2018-04-16T00:08:00.950Z,11.265408
2018-04-16T00:08:13.118Z,6.437376
2018-04-16T00:08:25.290Z,6.437376
2018-04-16T00:08:37.461Z,6.437376
2018-04-16T00:08:49.653Z,6.437376
2018-04-16T00:09:01.864Z,8.04672
2018-04-16T00:09:14.036Z,9.656064
2018-04-16T00:09:26.247Z,9.656064
2018-04-16T00:09:38.398Z,9.656064
2018-04-16T00:09:50.577Z,9.656064
2018-04-16T00:10:02.747Z,9.656064
2018-04-16T00:10:15.078Z,8.04672
2018-04-16T00:10:27.283Z,8.04672
2018-04-16T00:10:39.469Z,8.04672
2018-04-16T00:10:51.631Z,8.04672
2018-04-16T00:11:03.792Z,8.04672
2018-04-16T00:11:15.966Z,3.218688
2018-04-16T00:11:28.127Z,6.437376
2018-04-16T00:11:40.286Z,6.437376
2018-04-16T00:11:52.458Z,6.437376
2018-04-16T00:12:04.621Z,4.828032
2018-04-16T00:12:16.835Z,8.04672
2018-04-16T00:12:29.007Z,8.04672
2018-04-16T00:12:41.176Z,8.04672
2018-04-16T00:12:53.328Z,8.04672
2018-04-16T00:13:05.513Z,3.218688
2018-04-16T00:13:17.914Z,3.218688
2018-04-16T00:13:30.072Z,3.218688
2018-04-16T00:13:42.465Z,3.218688
2018-04-16T00:13:54.611Z,3.218688
2018-04-16T00:14:06.780Z,1.609344
2018-04-16T00:14:18.941Z,3.218688
2018-04-16T00:14:31.121Z,4.828032
2018-04-16T00:14:43.281Z,4.828032
2018-04-16T00:14:55.451Z,6.437376
2018-04-16T00:15:07.642Z,3.218688
2018-04-16T00:15:19.817Z,3.218688
2018-04-16T00:15:31.976Z,3.218688
2018-04-16T00:15:44.163Z,3.218688
2018-04-16T00:15:56.335Z,3.218688
2018-04-16T00:16:08.507Z,4.828032
2018-04-16T00:16:20.675Z,4.828032
2018-04-16T00:16:32.847Z,4.828032
2018-04-16T00:16:45.016Z,4.828032
2018-04-16T00:16:57.165Z,4.828032
2018-04-16T00:17:09.343Z,3.218688
2018-04-16T00:17:21.547Z,3.218688
2018-04-16T00:17:33.730Z,4.828032
2018-04-16T00:17:45.895Z,4.828032
2018-04-16T00:17:58.103Z,8.04672
2018-04-16T00:18:10.401Z,6.437376
2018-04-16T00:18:22.573Z,6.437376
2018-04-16T00:18:34.992Z,6.437376
2018-04-16T00:18:47.179Z,6.437376
2018-04-16T00:18:59.354Z,6.437376
2018-04-16T00:19:11.538Z,3.218688
2018-04-16T00:19:23.713Z,3.218688
2018-04-16T00:19:35.886Z,3.218688
2018-04-16T00:19:48.063Z,4.828032
2018-04-16T00:20:00.221Z,4.828032
2018-04-16T00:20:12.373Z,4.828032
2018-04-16T00:20:24.561Z,4.828032
2018-04-16T00:20:36.714Z,4.828032
2018-04-16T00:20:48.882Z,4.828032
2018-04-16T00:21:01.047Z,4.828032
2018-04-16T00:21:13.200Z,3.218688
2018-04-16T00:21:25.367Z,3.218688
2018-04-16T00:21:37.546Z,3.218688
2018-04-16T00:21:49.908Z,4.828032
2018-04-16T00:22:02.089Z,4.828032
2018-04-16T00:22:14.250Z,3.218688
2018-04-16T00:22:26.423Z,3.218688
2018-04-16T00:22:38.635Z,3.218688
2018-04-16T00:22:50.805Z,3.218688
2018-04-16T00:23:02.971Z,4.828032
2018-04-16T00:23:15.154Z,4.828032
2018-04-16T00:23:27.327Z,4.828032
2018-04-16T00:23:39.499Z,4.828032
2018-04-16T00:23:51.658Z,8.04672
2018-04-16T00:24:03.908Z,9.656064
2018-04-16T00:24:16.074Z,8.04672
2018-04-16T00:24:28.270Z,8.04672
2018-04-16T00:24:40.423Z,8.04672
2018-04-16T00:24:52.614Z,8.04672
2018-04-16T00:25:04.776Z,1.609344
2018-04-16T00:25:16.935Z,3.218688
2018-04-16T00:25:29.180Z,3.218688
2018-04-16T00:25:41.366Z,3.218688
2018-04-16T00:25:53.552Z,3.218688
2018-04-16T00:26:05.710Z,1.609344
2018-04-16T00:26:17.865Z,3.218688
2018-04-16T00:26:30.026Z,3.218688
2018-04-16T00:26:42.189Z,3.218688
2018-04-16T00:26:54.379Z,3.218688
2018-04-16T00:27:06.545Z,3.218688
2018-04-16T00:27:18.706Z,3.218688
2018-04-16T00:27:30.880Z,3.218688
2018-04-16T00:27:43.053Z,3.218688
2018-04-16T00:27:55.220Z,8.04672
2018-04-16T00:28:07.405Z,8.04672
2018-04-16T00:28:19.559Z,8.04672
2018-04-16T00:28:31.719Z,8.04672
2018-04-16T00:28:43.880Z,8.04672
2018-04-16T00:28:56.117Z,8.04672
2018-04-16T00:29:08.290Z,4.828032
2018-04-16T00:29:20.489Z,4.828032
2018-04-16T00:29:32.761Z,4.828032
2018-04-16T00:29:44.927Z,4.828032
2018-04-16T00:29:57.079Z,4.828032
2018-04-16T00:30:09.249Z,4.828032
2018-04-16T00:30:21.409Z,4.828032
2018-04-16T00:30:33.572Z,4.828032
2018-04-16T00:30:45.732Z,4.828032
2018-04-16T00:30:57.895Z,4.828032
2018-04-16T00:31:10.068Z,1.609344
2018-04-16T00:31:22.238Z,6.437376
2018-04-16T00:31:34.397Z,6.437376
2018-04-16T00:31:46.563Z,6.437376
2018-04-16T00:31:58.750Z,6.437376
2018-04-16T00:32:10.907Z,3.218688
2018-04-16T00:32:23.080Z,4.828032
2018-04-16T00:32:35.237Z,4.828032
2018-04-16T00:32:47.386Z,4.828032
2018-04-16T00:32:59.565Z,4.828032
2018-04-16T00:33:11.759Z,3.218688
2018-04-16T00:33:23.929Z,3.218688
2018-04-16T00:33:36.114Z,6.437376
2018-04-16T00:33:48.286Z,6.437376
2018-04-16T00:34:00.439Z,6.437376
2018-04-16T00:34:12.616Z,8.04672
2018-04-16T00:34:24.940Z,8.04672
2018-04-16T00:34:37.124Z,8.04672
2018-04-16T00:34:49.307Z,8.04672
2018-04-16T00:35:01.503Z,8.04672
2018-04-16T00:35:13.701Z,8.04672
2018-04-16T00:35:25.855Z,8.04672
2018-04-16T00:35:38.029Z,8.04672
2018-04-16T00:35:50.271Z,8.04672
2018-04-16T00:36:02.445Z,8.04672
2018-04-16T00:36:14.595Z,3.218688
2018-04-16T00:36:26.759Z,8.04672
2018-04-16T00:36:38.930Z,8.04672
2018-04-16T00:36:51.076Z,8.04672
2018-04-16T00:37:03.231Z,8.04672
2018-04-16T00:37:15.414Z,8.04672
2018-04-16T00:37:27.601Z,8.04672
2018-04-16T00:37:39.763Z,8.04672
2018-04-16T00:37:51.926Z,8.04672
2018-04-16T00:38:04.098Z,8.04672
2018-04-16T00:38:16.292Z,8.04672
2018-04-16T00:38:28.461Z,8.04672
2018-04-16T00:38:40.648Z,8.04672
2018-04-16T00:38:52.822Z,8.04672
2018-04-16T00:39:04.972Z,6.437376
2018-04-16T00:39:17.201Z,6.437376
2018-04-16T00:39:29.349Z,6.437376
2018-04-16T00:39:41.543Z,6.437376
2018-04-16T00:39:53.719Z,6.437376
2018-04-16T00:40:05.900Z,3.218688
2018-04-16T00:40:18.048Z,4.828032
2018-04-16T00:40:30.205Z,4.828032
2018-04-16T00:40:42.386Z,9.656064
2018-04-16T00:40:54.562Z,11.265408
2018-04-16T00:41:06.735Z,9.656064
2018-04-16T00:41:18.929Z,9.656064
2018-04-16T00:41:31.388Z,9.656064
2018-04-16T00:41:43.553Z,9.656064
2018-04-16T00:41:55.715Z,9.656064
2018-04-16T00:42:07.857Z,9.656064
2018-04-16T00:42:20.026Z,9.656064
2018-04-16T00:42:32.205Z,9.656064
2018-04-16T00:42:44.370Z,11.265408
2018-04-16T00:42:56.547Z,11.265408
2018-04-16T00:43:08.713Z,9.656064
2018-04-16T00:43:20.882Z,9.656064
2018-04-16T00:43:33.047Z,9.656064
2018-04-16T00:43:45.197Z,9.656064
2018-04-16T00:43:57.349Z,9.656064
2018-04-16T00:44:09.529Z,3.218688
2018-04-16T00:44:21.688Z,4.828032
2018-04-16T00:44:33.846Z,6.437376
2018-04-16T00:44:46.008Z,6.437376
2018-04-16T00:44:58.172Z,6.437376
2018-04-16T00:45:10.339Z,4.828032
2018-04-16T00:45:22.506Z,6.437376
2018-04-16T00:45:34.667Z,6.437376
2018-04-16T00:45:46.902Z,6.437376
2018-04-16T00:45:59.066Z,6.437376
2018-04-16T00:46:11.242Z,6.437376
2018-04-16T00:46:23.419Z,8.04672
2018-04-16T00:46:35.645Z,8.04672
2018-04-16T00:46:47.813Z,8.04672
2018-04-16T00:46:59.969Z,8.04672
2018-04-16T00:47:12.120Z,9.656064
2018-04-16T00:47:24.289Z,9.656064
2018-04-16T00:47:36.754Z,9.656064
2018-04-16T00:47:48.966Z,9.656064
2018-04-16T00:48:01.123Z,9.656064
2018-04-16T00:48:13.418Z,4.828032
2018-04-16T00:48:25.561Z,6.437376
2018-04-16T00:48:37.720Z,6.437376
2018-04-16T00:48:49.927Z,6.437376
2018-04-16T00:49:02.082Z,6.437376
2018-04-16T00:49:14.270Z,3.218688
2018-04-16T00:49:26.424Z,3.218688
2018-04-16T00:49:38.611Z,3.218688
2018-04-16T00:49:50.998Z,8.04672
2018-04-16T00:50:03.157Z,11.265408
2018-04-16T00:50:15.331Z,11.265408
2018-04-16T00:50:27.491Z,11.265408
2018-04-16T00:50:39.645Z,11.265408
2018-04-16T00:50:51.816Z,11.265408
2018-04-16T00:51:03.973Z,11.265408
2018-04-16T00:51:16.193Z,6.437376
2018-04-16T00:51:28.361Z,6.437376
2018-04-16T00:51:40.524Z,8.04672
2018-04-16T00:51:52.675Z,8.04672
2018-04-16T00:52:04.850Z,6.437376
2018-04-16T00:52:17.026Z,6.437376
2018-04-16T00:52:29.191Z,6.437376
2018-04-16T00:52:41.350Z,8.04672
2018-04-16T00:52:53.513Z,8.04672
2018-04-16T00:53:05.843Z,3.218688
2018-04-16T00:53:18.386Z,8.04672
2018-04-16T00:53:30.561Z,8.04672
2018-04-16T00:53:42.730Z,8.04672
2018-04-16T00:53:54.907Z,8.04672
2018-04-16T00:54:07.078Z,8.04672
2018-04-16T00:54:19.232Z,9.656064
2018-04-16T00:54:31.415Z,9.656064
2018-04-16T00:54:43.667Z,9.656064
2018-04-16T00:54:55.845Z,11.265408
2018-04-16T00:55:08.014Z,8.04672
2018-04-16T00:55:20.244Z,8.04672
2018-04-16T00:55:32.410Z,8.04672
2018-04-16T00:55:44.582Z,9.656064
2018-04-16T00:55:56.748Z,9.656064
2018-04-16T00:56:08.899Z,6.437376
2018-04-16T00:56:21.062Z,8.04672
2018-04-16T00:56:33.281Z,8.04672
2018-04-16T00:56:45.445Z,8.04672
2018-04-16T00:56:57.600Z,8.04672
2018-04-16T00:57:09.767Z,6.437376
2018-04-16T00:57:21.939Z,11.265408
2018-04-16T00:57:34.103Z,11.265408
2018-04-16T00:57:46.272Z,11.265408
2018-04-16T00:57:58.420Z,11.265408
2018-04-16T00:58:10.569Z,8.04672
2018-04-16T00:58:22.723Z,8.04672
2018-04-16T00:58:34.934Z,8.04672
2018-04-16T00:58:47.089Z,8.04672
2018-04-16T00:58:59.263Z,8.04672
2018-04-16T00:59:11.509Z,8.04672
2018-04-16T00:59:23.679Z,8.04672
2018-04-16T00:59:35.900Z,8.04672
2018-04-16T00:59:48.061Z,8.04672
2018-04-16T01:00:00.224Z,9.656064
2018-04-16T01:00:12.415Z,8.04672
2018-04-16T01:00:24.617Z,8.04672
2018-04-16T01:00:36.844Z,9.656064
2018-04-16T01:00:49.052Z,11.265408
2018-04-16T01:01:01.264Z,11.265408
2018-04-16T01:01:13.438Z,9.656064
2018-04-16T01:01:25.625Z,9.656064
2018-04-16T01:01:37.799Z,11.265408
2018-04-16T01:01:49.977Z,11.265408
2018-04-16T01:02:02.145Z,11.265408
2018-04-16T01:02:14.320Z,11.265408
2018-04-16T01:02:26.487Z,12.874752
2018-04-16T01:02:38.666Z,12.874752
2018-04-16T01:02:50.828Z,12.874752
2018-04-16T01:03:03.003Z,12.874752
2018-04-16T01:03:15.169Z,11.265408
2018-04-16T01:03:27.344Z,11.265408
2018-04-16T01:03:39.509Z,11.265408
2018-04-16T01:03:51.692Z,11.265408
2018-04-16T01:04:03.876Z,11.265408
2018-04-16T01:04:16.071Z,9.656064
2018-04-16T01:04:28.249Z,9.656064
2018-04-16T01:04:40.428Z,9.656064
2018-04-16T01:04:52.607Z,11.265408
2018-04-16T01:05:04.851Z,8.04672
2018-04-16T01:05:17.031Z,8.04672
2018-04-16T01:05:29.278Z,9.656064
2018-04-16T01:05:41.473Z,9.656064
2018-04-16T01:05:53.637Z,9.656064
2018-04-16T01:06:05.790Z,11.265408
2018-04-16T01:06:17.968Z,11.265408
2018-04-16T01:06:30.130Z,11.265408
2018-04-16T01:06:42.312Z,11.265408
2018-04-16T01:06:54.464Z,11.265408
2018-04-16T01:07:06.633Z,9.656064
2018-04-16T01:07:18.865Z,9.656064
2018-04-16T01:07:31.073Z,9.656064
2018-04-16T01:07:43.242Z,9.656064
2018-04-16T01:07:55.413Z,11.265408
2018-04-16T01:08:07.593Z,8.04672
2018-04-16T01:08:19.788Z,8.04672
2018-04-16T01:08:31.951Z,8.04672
2018-04-16T01:08:44.155Z,8.04672
2018-04-16T01:08:56.308Z,8.04672
2018-04-16T01:09:08.476Z,6.437376
2018-04-16T01:09:20.652Z,8.04672
2018-04-16T01:09:32.827Z,9.656064
2018-04-16T01:09:45.037Z,9.656064
2018-04-16T01:09:57.220Z,9.656064
2018-04-16T01:10:09.393Z,8.04672
2018-04-16T01:10:21.555Z,8.04672
2018-04-16T01:10:33.808Z,11.265408
2018-04-16T01:10:45.972Z,11.265408
2018-04-16T01:10:58.125Z,11.265408
2018-04-16T01:11:10.325Z,9.656064
2018-04-16T01:11:22.517Z,9.656064
2018-04-16T01:11:34.663Z,9.656064
2018-04-16T01:11:46.858Z,9.656064
2018-04-16T01:11:59.017Z,9.656064
2018-04-16T01:12:11.183Z,3.218688
2018-04-16T01:12:23.335Z,3.218688
2018-04-16T01:12:35.510Z,6.437376
2018-04-16T01:12:47.666Z,6.437376
2018-04-16T01:12:59.819Z,6.437376
2018-04-16T01:13:12.009Z,9.656064
2018-04-16T01:13:24.411Z,9.656064
2018-04-16T01:13:36.817Z,9.656064
2018-04-16T01:13:48.988Z,9.656064
2018-04-16T01:14:01.145Z,9.656064
2018-04-16T01:14:13.351Z,6.437376
2018-04-16T01:14:25.509Z,6.437376
2018-04-16T01:14:37.660Z,6.437376
2018-04-16T01:14:49.879Z,6.437376
2018-04-16T01:15:02.081Z,6.437376
2018-04-16T01:15:14.252Z,8.04672
2018-04-16T01:15:26.420Z,8.04672
2018-04-16T01:15:38.625Z,8.04672
2018-04-16T01:15:50.781Z,8.04672
2018-04-16T01:16:02.982Z,8.04672
2018-04-16T01:16:15.201Z,3.218688
2018-04-16T01:16:27.364Z,4.828032
2018-04-16T01:16:39.526Z,4.828032
2018-04-16T01:16:51.689Z,8.04672
2018-04-16T01:17:03.853Z,8.04672
2018-04-16T01:17:16.066Z,8.04672
2018-04-16T01:17:28.241Z,9.656064
2018-04-16T01:17:40.414Z,9.656064
2018-04-16T01:17:52.562Z,11.265408
2018-04-16T01:18:04.728Z,8.04672
2018-04-16T01:18:17.104Z,8.04672
2018-04-16T01:18:29.487Z,8.04672
2018-04-16T01:18:41.649Z,9.656064
2018-04-16T01:18:53.827Z,9.656064
2018-04-16T01:19:05.986Z,9.656064
2018-04-16T01:19:18.153Z,9.656064
2018-04-16T01:19:30.359Z,9.656064
2018-04-16T01:19:42.535Z,9.656064
2018-04-16T01:19:54.747Z,9.656064
2018-04-16T01:20:06.918Z,8.04672
2018-04-16T01:20:19.097Z,8.04672
2018-04-16T01:20:31.259Z,8.04672
2018-04-16T01:20:43.416Z,8.04672
2018-04-16T01:20:55.568Z,8.04672
2018-04-16T01:21:07.708Z,8.04672
2018-04-16T01:21:19.862Z,8.04672
2018-04-16T01:21:32.082Z,8.04672
2018-04-16T01:21:44.370Z,8.04672
2018-04-16T01:21:56.526Z,8.04672
2018-04-16T01:22:08.719Z,6.437376
2018-04-16T01:22:20.881Z,6.437376
2018-04-16T01:22:33.088Z,6.437376
2018-04-16T01:22:45.270Z,6.437376
2018-04-16T01:22:57.426Z,6.437376
2018-04-16T01:23:09.593Z,6.437376
2018-04-16T01:23:21.757Z,6.437376
2018-04-16T01:23:33.967Z,6.437376
2018-04-16T01:23:46.117Z,6.437376
2018-04-16T01:23:58.276Z,8.04672
2018-04-16T01:24:10.456Z,6.437376
2018-04-16T01:24:22.619Z,8.04672
2018-04-16T01:24:34.810Z,9.656064
2018-04-16T01:24:46.979Z,9.656064
2018-04-16T01:24:59.144Z,9.656064
2018-04-16T01:25:11.323Z,8.04672
2018-04-16T01:25:23.515Z,8.04672
2018-04-16T01:25:35.754Z,8.04672
2018-04-16T01:25:47.934Z,8.04672
2018-04-16T01:26:00.103Z,8.04672
2018-04-16T01:26:12.286Z,8.04672
2018-04-16T01:26:24.457Z,8.04672
2018-04-16T01:26:36.669Z,8.04672
2018-04-16T01:26:48.825Z,8.04672
2018-04-16T01:27:00.991Z,8.04672
2018-04-16T01:27:13.152Z,8.04672
2018-04-16T01:27:25.542Z,8.04672
2018-04-16T01:27:37.695Z,8.04672
2018-04-16T01:27:49.884Z,8.04672
2018-04-16T01:28:02.078Z,8.04672
2018-04-16T01:28:14.261Z,3.218688
2018-04-16T01:28:26.472Z,3.218688
2018-04-16T01:28:38.640Z,3.218688
2018-04-16T01:28:50.861Z,3.218688
2018-04-16T01:29:03.061Z,3.218688
2018-04-16T01:29:15.225Z,3.218688
2018-04-16T01:29:27.395Z,3.218688
2018-04-16T01:29:39.555Z,3.218688
2018-04-16T01:29:51.716Z,3.218688
2018-04-16T01:30:03.884Z,3.218688
2018-04-16T01:30:16.046Z,3.218688
2018-04-16T01:30:28.215Z,3.218688
2018-04-16T01:30:40.381Z,3.218688
2018-04-16T01:30:52.537Z,3.218688
2018-04-16T01:31:04.684Z,3.218688
2018-04-16T01:31:16.857Z,6.437376
2018-04-16T01:31:29.037Z,6.437376
2018-04-16T01:31:41.250Z,6.437376
2018-04-16T01:31:53.411Z,6.437376
2018-04-16T01:32:05.566Z,3.218688
2018-04-16T01:32:17.791Z,6.437376
2018-04-16T01:32:29.942Z,6.437376
2018-04-16T01:32:42.136Z,6.437376
2018-04-16T01:32:54.311Z,6.437376
2018-04-16T01:33:06.470Z,3.218688
2018-04-16T01:33:18.627Z,6.437376
2018-04-16T01:33:30.792Z,6.437376
2018-04-16T01:33:42.957Z,6.437376
2018-04-16T01:33:55.119Z,6.437376
2018-04-16T01:34:07.283Z,6.437376
2018-04-16T01:34:19.610Z,6.437376
2018-04-16T01:34:31.784Z,6.437376
2018-04-16T01:34:43.948Z,6.437376
2018-04-16T01:34:56.105Z,6.437376
2018-04-16T01:35:08.271Z,8.04672
2018-04-16T01:35:20.433Z,8.04672
2018-04-16T01:35:32.596Z,8.04672
2018-04-16T01:35:44.750Z,8.04672
2018-04-16T01:35:56.890Z,8.04672
2018-04-16T01:36:09.056Z,8.04672
2018-04-16T01:36:21.226Z,8.04672
2018-04-16T01:36:33.413Z,8.04672
2018-04-16T01:36:45.572Z,8.04672
2018-04-16T01:36:57.750Z,8.04672
2018-04-16T01:37:09.940Z,3.218688
2018-04-16T01:37:22.179Z,6.437376
2018-04-16T01:37:34.367Z,8.04672
2018-04-16T01:37:46.546Z,8.04672
2018-04-16T01:37:58.774Z,8.04672
2018-04-16T01:38:10.936Z,6.437376
2018-04-16T01:38:23.101Z,6.437376
2018-04-16T01:38:35.263Z,8.04672
2018-04-16T01:38:47.430Z,8.04672
2018-04-16T01:38:59.600Z,8.04672
2018-04-16T01:39:11.926Z,6.437376
2018-04-16T01:39:24.191Z,6.437376
2018-04-16T01:39:36.510Z,6.437376
2018-04-16T01:39:48.689Z,6.437376
2018-04-16T01:40:00.894Z,6.437376
2018-04-16T01:40:13.070Z,3.218688
2018-04-16T01:40:25.258Z,4.828032
2018-04-16T01:40:37.422Z,6.437376
2018-04-16T01:40:49.588Z,8.04672
2018-04-16T01:41:01.754Z,8.04672
2018-04-16T01:41:14.068Z,6.437376
2018-04-16T01:41:26.234Z,6.437376
2018-04-16T01:41:38.383Z,6.437376
2018-04-16T01:41:50.579Z,6.437376
2018-04-16T01:42:02.747Z,6.437376
2018-04-16T01:42:14.935Z,3.218688
2018-04-16T01:42:27.121Z,3.218688
2018-04-16T01:42:39.284Z,6.437376
2018-04-16T01:42:51.433Z,6.437376
2018-04-16T01:43:03.586Z,6.437376
2018-04-16T01:43:15.786Z,6.437376
2018-04-16T01:43:27.947Z,6.437376
2018-04-16T01:43:40.129Z,6.437376
2018-04-16T01:43:52.315Z,6.437376
2018-04-16T01:44:04.519Z,1.609344
2018-04-16T01:44:16.662Z,3.218688
2018-04-16T01:44:28.805Z,3.218688
2018-04-16T01:44:40.992Z,6.437376
2018-04-16T01:44:53.155Z,6.437376
2018-04-16T01:45:05.334Z,4.828032
2018-04-16T01:45:17.485Z,4.828032
2018-04-16T01:45:29.639Z,4.828032
2018-04-16T01:45:41.794Z,6.437376
2018-04-16T01:45:53.956Z,6.437376
2018-04-16T01:46:06.195Z,1.609344
2018-04-16T01:46:18.347Z,3.218688
2018-04-16T01:46:30.519Z,3.218688
2018-04-16T01:46:42.701Z,3.218688
2018-04-16T01:46:54.889Z,3.218688
2018-04-16T01:47:07.063Z,1.609344
2018-04-16T01:47:19.225Z,1.609344
2018-04-16T01:47:31.385Z,1.609344
2018-04-16T01:47:43.534Z,1.609344
2018-04-16T01:47:55.693Z,1.609344
2018-04-16T01:48:07.977Z,0
2018-04-16T01:48:20.135Z,0
2018-04-16T01:48:32.316Z,0
2018-04-16T01:48:44.490Z,3.218688
2018-04-16T01:48:56.653Z,3.218688
2018-04-16T01:49:08.849Z,3.218688
2018-04-16T01:49:21.035Z,3.218688
2018-04-16T01:49:33.261Z,3.218688
2018-04-16T01:49:45.524Z,3.218688
2018-04-16T01:49:57.682Z,6.437376
2018-04-16T01:50:09.878Z,4.828032
2018-04-16T01:50:22.106Z,4.828032
2018-04-16T01:50:34.275Z,4.828032
2018-04-16T01:50:46.432Z,6.437376
2018-04-16T01:50:58.609Z,6.437376
2018-04-16T01:51:10.866Z,6.437376
2018-04-16T01:51:23.059Z,6.437376
2018-04-16T01:51:35.219Z,6.437376
2018-04-16T01:51:47.407Z,6.437376
2018-04-16T01:51:59.551Z,6.437376
2018-04-16T01:52:11.729Z,3.218688
2018-04-16T01:52:23.876Z,3.218688
2018-04-16T01:52:36.076Z,6.437376
2018-04-16T01:52:48.237Z,6.437376
2018-04-16T01:53:00.408Z,6.437376
2018-04-16T01:53:12.564Z,8.04672
2018-04-16T01:53:24.759Z,8.04672
2018-04-16T01:53:36.927Z,8.04672
2018-04-16T01:53:49.087Z,8.04672
2018-04-16T01:54:01.259Z,8.04672
2018-04-16T01:54:13.416Z,3.218688
2018-04-16T01:54:25.574Z,6.437376
2018-04-16T01:54:37.759Z,6.437376
2018-04-16T01:54:49.918Z,6.437376
2018-04-16T01:55:02.084Z,8.04672
2018-04-16T01:55:14.264Z,8.04672
2018-04-16T01:55:26.439Z,11.265408
2018-04-16T01:55:38.615Z,11.265408
2018-04-16T01:55:50.816Z,11.265408
2018-04-16T01:56:02.978Z,11.265408
2018-04-16T01:56:15.347Z,8.04672
2018-04-16T01:56:27.514Z,8.04672
2018-04-16T01:56:39.688Z,8.04672
2018-04-16T01:56:51.829Z,8.04672
2018-04-16T01:57:03.997Z,8.04672
2018-04-16T01:57:16.188Z,8.04672
2018-04-16T01:57:28.353Z,8.04672
2018-04-16T01:57:40.542Z,8.04672
2018-04-16T01:57:52.709Z,8.04672
2018-04-16T01:58:04.911Z,3.218688
2018-04-16T01:58:17.066Z,3.218688
2018-04-16T01:58:29.224Z,6.437376
2018-04-16T01:58:41.395Z,6.437376
2018-04-16T01:58:53.554Z,6.437376
2018-04-16T01:59:05.737Z,3.218688
2018-04-16T01:59:17.887Z,3.218688
2018-04-16T01:59:30.058Z,6.437376
2018-04-16T01:59:42.206Z,6.437376
2018-04-16T01:59:54.352Z,6.437376
2018-04-16T02:00:06.515Z,3.218688
2018-04-16T02:00:18.725Z,4.828032
2018-04-16T02:00:30.920Z,6.437376
2018-04-16T02:00:43.126Z,6.437376
2018-04-16T02:00:55.341Z,6.437376
2018-04-16T02:01:07.592Z,4.828032
2018-04-16T02:01:19.862Z,4.828032
2018-04-16T02:01:32.028Z,4.828032
2018-04-16T02:01:44.207Z,4.828032
2018-04-16T02:01:56.366Z,4.828032
2018-04-16T02:02:08.543Z,1.609344
2018-04-16T02:02:20.728Z,3.218688
2018-04-16T02:02:32.918Z,3.218688
2018-04-16T02:02:45.144Z,3.218688
2018-04-16T02:02:57.293Z,3.218688
2018-04-16T02:03:09.490Z,1.609344
2018-04-16T02:03:21.726Z,6.437376
2018-04-16T02:03:33.919Z,6.437376
2018-04-16T02:03:46.119Z,6.437376
2018-04-16T02:03:58.298Z,6.437376
2018-04-16T02:04:10.473Z,3.218688
2018-04-16T02:04:22.666Z,6.437376
2018-04-16T02:04:34.834Z,6.437376
2018-04-16T02:04:46.988Z,6.437376
2018-04-16T02:04:59.174Z,6.437376
2018-04-16T02:05:11.334Z,6.437376
2018-04-16T02:05:23.528Z,6.437376
2018-04-16T02:05:35.720Z,8.04672
2018-04-16T02:05:47.882Z,8.04672
2018-04-16T02:06:00.080Z,8.04672
2018-04-16T02:06:12.323Z,8.04672
2018-04-16T02:06:24.483Z,8.04672
2018-04-16T02:06:36.651Z,8.04672
2018-04-16T02:06:48.812Z,8.04672
2018-04-16T02:07:00.985Z,8.04672
2018-04-16T02:07:13.158Z,4.828032
2018-04-16T02:07:25.326Z,8.04672
2018-04-16T02:07:37.477Z,8.04672
2018-04-16T02:07:49.639Z,8.04672
2018-04-16T02:08:01.817Z,8.04672
2018-04-16T02:08:13.999Z,6.437376
2018-04-16T02:08:26.173Z,9.656064
2018-04-16T02:08:38.338Z,9.656064
2018-04-16T02:08:50.531Z,9.656064
2018-04-16T02:09:02.709Z,9.656064
2018-04-16T02:09:14.885Z,8.04672
2018-04-16T02:09:27.070Z,8.04672
2018-04-16T02:09:39.224Z,9.656064
2018-04-16T02:09:51.381Z,9.656064
2018-04-16T02:10:03.579Z,9.656064
2018-04-16T02:10:15.770Z,4.828032
2018-04-16T02:10:27.948Z,6.437376
2018-04-16T02:10:40.109Z,6.437376
2018-04-16T02:10:52.287Z,6.437376
2018-04-16T02:11:04.455Z,8.04672
2018-04-16T02:11:16.850Z,8.04672
2018-04-16T02:11:29.125Z,8.04672
2018-04-16T02:11:41.665Z,8.04672
2018-04-16T02:11:53.835Z,9.656064
2018-04-16T02:12:05.997Z,8.04672
2018-04-16T02:12:18.168Z,8.04672
2018-04-16T02:12:30.318Z,8.04672
2018-04-16T02:12:42.502Z,9.656064
2018-04-16T02:12:54.670Z,9.656064
2018-04-16T02:13:06.845Z,8.04672
2018-04-16T02:13:19.194Z,8.04672
2018-04-16T02:13:31.336Z,8.04672
2018-04-16T02:13:43.661Z,8.04672
2018-04-16T02:13:55.830Z,8.04672
2018-04-16T02:14:08.023Z,3.218688
2018-04-16T02:14:20.182Z,6.437376
2018-04-16T02:14:32.350Z,8.04672
2018-04-16T02:14:44.529Z,8.04672
2018-04-16T02:14:56.854Z,8.04672
2018-04-16T02:15:09.015Z,6.437376
2018-04-16T02:15:21.185Z,6.437376
2018-04-16T02:15:33.365Z,6.437376
2018-04-16T02:15:45.529Z,6.437376
2018-04-16T02:15:57.714Z,6.437376
2018-04-16T02:16:09.866Z,6.437376
2018-04-16T02:16:22.019Z,6.437376
2018-04-16T02:16:34.194Z,6.437376
2018-04-16T02:16:46.353Z,8.04672
2018-04-16T02:16:58.528Z,8.04672
2018-04-16T02:17:10.696Z,6.437376
2018-04-16T02:17:23.008Z,6.437376
2018-04-16T02:17:35.168Z,6.437376
2018-04-16T02:17:47.315Z,6.437376
2018-04-16T02:17:59.473Z,6.437376
2018-04-16T02:18:11.837Z,6.437376
2018-04-16T02:18:23.999Z,8.04672
2018-04-16T02:18:36.328Z,8.04672
2018-04-16T02:18:48.498Z,8.04672
2018-04-16T02:19:00.737Z,8.04672
2018-04-16T02:19:12.904Z,6.437376
2018-04-16T02:19:25.056Z,6.437376
2018-04-16T02:19:37.226Z,6.437376
2018-04-16T02:19:49.399Z,6.437376
2018-04-16T02:20:01.603Z,6.437376
2018-04-16T02:20:13.756Z,3.218688
2018-04-16T02:20:25.907Z,6.437376
2018-04-16T02:20:38.094Z,6.437376
2018-04-16T02:20:50.244Z,6.437376
2018-04-16T02:21:02.404Z,8.04672
2018-04-16T02:21:14.655Z,11.265408
2018-04-16T02:21:26.886Z,11.265408
2018-04-16T02:21:39.070Z,11.265408
2018-04-16T02:21:51.406Z,11.265408
2018-04-16T02:22:03.595Z,11.265408
2018-04-16T02:22:15.840Z,9.656064
2018-04-16T02:22:28.037Z,9.656064
2018-04-16T02:22:40.234Z,11.265408
2018-04-16T02:22:52.409Z,11.265408
2018-04-16T02:23:04.590Z,8.04672
2018-04-16T02:23:16.758Z,8.04672
2018-04-16T02:23:28.929Z,8.04672
2018-04-16T02:23:41.088Z,9.656064
2018-04-16T02:23:53.242Z,9.656064
2018-04-16T02:24:05.408Z,8.04672